sensor_id;sensor_type;location;lat;lon;timestamp;P1;durP1;ratioP1;P2;durP2;ratioP2
31347;SDS011;21711;49.708;18.568;2023-05-19T02:26:58;36.28;;;15.68;;
31347;SDS011;21711;49.708;18.568;2023-05-19T02:29:25;32.70;;;16.48;;
31347;SDS011;21711;49.708;18.568;2023-05-19T02:31:53;40.03;;;16.45;;
31347;SDS011;21711;49.708;18.568;2023-05-19T02:34:21;36.17;;;15.40;;
31347;SDS011;21711;49.708;18.568;2023-05-19T02:36:48;39.30;;;17.45;;
31347;SDS011;21711;49.708;18.568;2023-05-19T02:39:16;32.65;;;15.90;;
31347;SDS011;21711;49.708;18.568;2023-05-19T02:41:43;36.45;;;17.67;;
31347;SDS011;21711;49.708;18.568;2023-05-19T02:44:10;43.88;;;18.38;;
31347;SDS011;21711;49.708;18.568;2023-05-19T02:46:38;33.35;;;16.98;;
31347;SDS011;21711;49.708;18.568;2023-05-19T02:49:05;34.42;;;16.00;;
31347;SDS011;21711;49.708;18.568;2023-05-19T02:51:33;35.00;;;16.63;;
31347;SDS011;21711;49.708;18.568;2023-05-19T02:54:00;41.78;;;18.08;;
31347;SDS011;21711;49.708;18.568;2023-05-19T02:56:28;39.63;;;17.17;;
31347;SDS011;21711;49.708;18.568;2023-05-19T02:58:55;40.03;;;17.98;;
31347;SDS011;21711;49.708;18.568;2023-05-19T03:01:24;38.05;;;17.02;;
31347;SDS011;21711;49.708;18.568;2023-05-19T03:03:51;39.03;;;16.90;;
31347;SDS011;21711;49.708;18.568;2023-05-19T03:06:19;37.53;;;17.85;;
31347;SDS011;21711;49.708;18.568;2023-05-19T03:08:49;39.28;;;17.55;;
31347;SDS011;21711;49.708;18.568;2023-05-19T03:11:17;35.25;;;17.08;;
31347;SDS011;21711;49.708;18.568;2023-05-19T03:13:44;41.30;;;17.40;;
31347;SDS011;21711;49.708;18.568;2023-05-19T03:16:11;34.83;;;15.75;;
31347;SDS011;21711;49.708;18.568;2023-05-19T03:18:39;37.08;;;16.20;;
31347;SDS011;21711;49.708;18.568;2023-05-19T03:21:07;33.40;;;16.60;;
31347;SDS011;21711;49.708;18.568;2023-05-19T03:23:34;36.97;;;16.48;;
31347;SDS011;21711;49.708;18.568;2023-05-19T03:26:02;30.52;;;15.73;;
31347;SDS011;21711;49.708;18.568;2023-05-19T03:28:29;33.10;;;16.70;;
31347;SDS011;21711;49.708;18.568;2023-05-19T03:30:57;33.95;;;16.88;;
31347;SDS011;21711;49.708;18.568;2023-05-19T03:33:28;33.47;;;16.17;;
31347;SDS011;21711;49.708;18.568;2023-05-19T07:31:56;25.33;;;15.23;;
31347;SDS011;21711;49.708;18.568;2023-05-19T07:34:23;19.40;;;12.95;;
31347;SDS011;21711;49.708;18.568;2023-05-19T07:36:51;17.98;;;12.40;;
31347;SDS011;21711;49.708;18.568;2023-05-19T07:39:18;13.88;;;8.18;;
31347;SDS011;21711;49.708;18.568;2023-05-19T07:41:46;10.55;;;7.30;;
31347;SDS011;21711;49.708;18.568;2023-05-19T07:44:18;10.98;;;7.35;;
31347;SDS011;21711;49.708;18.568;2023-05-19T07:46:45;14.05;;;7.20;;
31347;SDS011;21711;49.708;18.568;2023-05-19T07:49:13;11.50;;;7.20;;
31347;SDS011;21711;49.708;18.568;2023-05-19T07:51:40;9.57;;;6.97;;
31347;SDS011;21711;49.708;18.568;2023-05-19T07:54:07;9.10;;;5.97;;
31347;SDS011;21711;49.708;18.568;2023-05-19T07:56:35;8.02;;;5.82;;
31347;SDS011;21711;49.708;18.568;2023-05-19T07:59:02;12.40;;;6.90;;
31347;SDS011;21711;49.708;18.568;2023-05-19T08:01:30;11.30;;;7.22;;
31347;SDS011;21711;49.708;18.568;2023-05-19T08:03:58;12.75;;;7.45;;
31347;SDS011;21711;49.708;18.568;2023-05-19T08:06:25;11.38;;;7.70;;
31347;SDS011;21711;49.708;18.568;2023-05-19T08:08:53;11.98;;;8.40;;
31347;SDS011;21711;49.708;18.568;2023-05-19T08:11:21;13.75;;;8.20;;
31347;SDS011;21711;49.708;18.568;2023-05-19T08:13:48;14.77;;;9.07;;
31347;SDS011;21711;49.708;18.568;2023-05-19T08:16:16;12.38;;;7.68;;
31347;SDS011;21711;49.708;18.568;2023-05-19T08:18:43;14.00;;;8.65;;
31347;SDS011;21711;49.708;18.568;2023-05-19T08:21:11;13.30;;;8.73;;
31347;SDS011;21711;49.708;18.568;2023-05-19T08:23:39;11.43;;;7.18;;
31347;SDS011;21711;49.708;18.568;2023-05-19T08:26:06;14.05;;;7.32;;
31347;SDS011;21711;49.708;18.568;2023-05-19T08:28:33;13.20;;;7.47;;
31347;SDS011;21711;49.708;18.568;2023-05-19T08:31:01;12.20;;;8.60;;
31347;SDS011;21711;49.708;18.568;2023-05-19T08:33:28;11.82;;;8.20;;
31347;SDS011;21711;49.708;18.568;2023-05-19T08:35:55;11.77;;;7.97;;
31347;SDS011;21711;49.708;18.568;2023-05-19T08:38:24;14.45;;;8.93;;
31347;SDS011;21711;49.708;18.568;2023-05-19T08:40:52;15.93;;;8.43;;
31347;SDS011;21711;49.708;18.568;2023-05-19T17:04:33;20.08;;;12.50;;
31347;SDS011;21711;49.708;18.568;2023-05-19T17:07:01;19.17;;;11.75;;
31347;SDS011;21711;49.708;18.568;2023-05-19T17:09:28;28.38;;;13.10;;
31347;SDS011;21711;49.708;18.568;2023-05-19T17:11:56;18.38;;;12.07;;
31347;SDS011;21711;49.708;18.568;2023-05-19T17:14:24;21.67;;;12.90;;
31347;SDS011;21711;49.708;18.568;2023-05-19T17:16:51;21.50;;;13.32;;
31347;SDS011;21711;49.708;18.568;2023-05-19T17:19:18;19.17;;;12.60;;
31347;SDS011;21711;49.708;18.568;2023-05-19T17:21:46;21.08;;;12.73;;
31347;SDS011;21711;49.708;18.568;2023-05-19T17:24:13;21.52;;;13.18;;
31347;SDS011;21711;49.708;18.568;2023-05-19T17:26:41;24.77;;;13.00;;
31347;SDS011;21711;49.708;18.568;2023-05-19T17:29:09;25.92;;;12.50;;
31347;SDS011;21711;49.708;18.568;2023-05-19T17:31:37;18.55;;;12.60;;
31347;SDS011;21711;49.708;18.568;2023-05-19T17:34:04;20.15;;;12.02;;
31347;SDS011;21711;49.708;18.568;2023-05-19T17:36:32;19.58;;;12.35;;
31347;SDS011;21711;49.708;18.568;2023-05-19T17:38:59;21.05;;;13.38;;
31347;SDS011;21711;49.708;18.568;2023-05-19T17:41:27;21.90;;;13.10;;
31347;SDS011;21711;49.708;18.568;2023-05-19T17:43:54;19.90;;;13.48;;
31347;SDS011;21711;49.708;18.568;2023-05-19T17:46:22;23.08;;;13.20;;
31347;SDS011;21711;49.708;18.568;2023-05-19T17:48:49;22.50;;;14.07;;
31347;SDS011;21711;49.708;18.568;2023-05-19T17:51:17;22.40;;;13.45;;
31347;SDS011;21711;49.708;18.568;2023-05-19T17:53:44;21.88;;;12.30;;
31347;SDS011;21711;49.708;18.568;2023-05-19T17:56:12;20.10;;;12.43;;
31347;SDS011;21711;49.708;18.568;2023-05-19T17:58:40;20.23;;;12.10;;
31347;SDS011;21711;49.708;18.568;2023-05-19T18:01:09;22.33;;;13.90;;
31347;SDS011;21711;49.708;18.568;2023-05-19T18:03:37;24.20;;;14.15;;
31347;SDS011;21711;49.708;18.568;2023-05-19T18:06:05;26.73;;;13.57;;
31347;SDS011;21711;49.708;18.568;2023-05-19T18:08:33;27.38;;;14.27;;
31347;SDS011;21711;49.708;18.568;2023-05-19T18:11:02;27.52;;;14.70;;
31347;SDS011;21711;49.708;18.568;2023-05-19T18:13:31;27.40;;;13.98;;
31347;SDS011;21711;49.708;18.568;2023-05-19T18:15:59;24.67;;;13.55;;
31347;SDS011;21711;49.708;18.568;2023-05-19T18:22:55;29.65;;;15.65;;
31347;SDS011;21711;49.708;18.568;2023-05-19T18:25:25;24.23;;;14.13;;
31347;SDS011;21711;49.708;18.568;2023-05-19T18:27:53;27.70;;;16.10;;
